sensor_id;sensor_type;location;lat;lon;timestamp;P1;durP1;ratioP1;P2;durP2;ratioP2
58926;SDS011;44712;52.530;9.760;2022-08-25T00:00:08;6.35;;;5.43;;
58926;SDS011;44712;52.530;9.760;2022-08-25T00:02:36;8.23;;;5.85;;
58926;SDS011;44712;52.530;9.760;2022-08-25T00:05:03;11.35;;;6.50;;
58926;SDS011;44712;52.530;9.760;2022-08-25T00:07:32;8.18;;;5.70;;
58926;SDS011;44712;52.530;9.760;2022-08-25T00:09:58;7.32;;;5.63;;
58926;SDS011;44712;52.530;9.760;2022-08-25T00:12:25;8.27;;;6.20;;
58926;SDS011;44712;52.530;9.760;2022-08-25T00:14:52;8.82;;;6.38;;
58926;SDS011;44712;52.530;9.760;2022-08-25T00:17:20;10.82;;;5.60;;
58926;SDS011;44712;52.530;9.760;2022-08-25T00:19:51;8.55;;;6.30;;
58926;SDS011;44712;52.530;9.760;2022-08-25T00:22:18;9.02;;;6.22;;
58926;SDS011;44712;52.530;9.760;2022-08-25T00:24:45;9.88;;;5.93;;
58926;SDS011;44712;52.530;9.760;2022-08-25T00:27:12;9.73;;;6.60;;
58926;SDS011;44712;52.530;9.760;2022-08-25T00:29:40;7.55;;;5.93;;
58926;SDS011;44712;52.530;9.760;2022-08-25T00:32:06;8.88;;;6.38;;
58926;SDS011;44712;52.530;9.760;2022-08-25T00:34:35;7.10;;;5.95;;
58926;SDS011;44712;52.530;9.760;2022-08-25T00:37:04;9.82;;;6.47;;
58926;SDS011;44712;52.530;9.760;2022-08-25T00:39:32;10.55;;;6.25;;
58926;SDS011;44712;52.530;9.760;2022-08-25T00:41:59;9.02;;;6.32;;
58926;SDS011;44712;52.530;9.760;2022-08-25T00:44:28;9.63;;;6.68;;
58926;SDS011;44712;52.530;9.760;2022-08-25T00:46:58;8.55;;;6.55;;
58926;SDS011;44712;52.530;9.760;2022-08-25T00:49:36;8.82;;;6.63;;
58926;SDS011;44712;52.530;9.760;2022-08-25T00:52:29;9.15;;;6.70;;
58926;SDS011;44712;52.530;9.760;2022-08-25T00:57:45;12.57;;;7.25;;
58926;SDS011;44712;52.530;9.760;2022-08-25T01:00:25;9.07;;;6.45;;
58926;SDS011;44712;52.530;9.760;2022-08-25T01:02:54;9.95;;;7.18;;
58926;SDS011;44712;52.530;9.760;2022-08-25T01:05:22;12.82;;;7.15;;
58926;SDS011;44712;52.530;9.760;2022-08-25T01:07:50;11.02;;;7.13;;
58926;SDS011;44712;52.530;9.760;2022-08-25T01:10:23;10.45;;;7.03;;
58926;SDS011;44712;52.530;9.760;2022-08-25T01:12:52;10.27;;;6.88;;
58926;SDS011;44712;52.530;9.760;2022-08-25T01:15:24;9.93;;;6.93;;
58926;SDS011;44712;52.530;9.760;2022-08-25T01:17:53;10.07;;;7.03;;
58926;SDS011;44712;52.530;9.760;2022-08-25T01:20:26;9.02;;;7.40;;
58926;SDS011;44712;52.530;9.760;2022-08-25T01:22:56;8.07;;;6.82;;
58926;SDS011;44712;52.530;9.760;2022-08-25T01:28:26;9.65;;;7.68;;
58926;SDS011;44712;52.530;9.760;2022-08-25T01:31:03;10.50;;;6.97;;
58926;SDS011;44712;52.530;9.760;2022-08-25T01:33:49;12.05;;;6.95;;
58926;SDS011;44712;52.530;9.760;2022-08-25T01:36:17;11.32;;;6.60;;
58926;SDS011;44712;52.530;9.760;2022-08-25T01:38:44;16.35;;;8.52;;
58926;SDS011;44712;52.530;9.760;2022-08-25T01:41:11;11.25;;;7.72;;
58926;SDS011;44712;52.530;9.760;2022-08-25T01:43:37;11.93;;;7.85;;
58926;SDS011;44712;52.530;9.760;2022-08-25T01:46:04;13.63;;;8.23;;
58926;SDS011;44712;52.530;9.760;2022-08-25T01:48:31;12.02;;;8.77;;
58926;SDS011;44712;52.530;9.760;2022-08-25T01:50:58;14.88;;;8.63;;
58926;SDS011;44712;52.530;9.760;2022-08-25T01:53:27;12.85;;;8.25;;
58926;SDS011;44712;52.530;9.760;2022-08-25T01:56:07;12.15;;;8.52;;
58926;SDS011;44712;52.530;9.760;2022-08-25T01:58:40;13.55;;;8.02;;
58926;SDS011;44712;52.530;9.760;2022-08-25T02:01:10;12.65;;;9.05;;
58926;SDS011;44712;52.530;9.760;2022-08-25T02:03:42;14.88;;;8.77;;
58926;SDS011;44712;52.530;9.760;2022-08-25T02:06:12;13.77;;;9.48;;
58926;SDS011;44712;52.530;9.760;2022-08-25T02:11:35;11.80;;;8.75;;
58926;SDS011;44712;52.530;9.760;2022-08-25T02:14:03;11.60;;;9.13;;
58926;SDS011;44712;52.530;9.760;2022-08-25T02:16:32;13.02;;;9.38;;
58926;SDS011;44712;52.530;9.760;2022-08-25T02:19:03;14.35;;;9.43;;
58926;SDS011;44712;52.530;9.760;2022-08-25T02:21:33;14.68;;;9.75;;
58926;SDS011;44712;52.530;9.760;2022-08-25T02:24:03;13.95;;;9.73;;
58926;SDS011;44712;52.530;9.760;2022-08-25T02:26:31;18.25;;;10.32;;
58926;SDS011;44712;52.530;9.760;2022-08-25T02:29:02;13.55;;;9.30;;
58926;SDS011;44712;52.530;9.760;2022-08-25T02:31:30;14.20;;;9.93;;
58926;SDS011;44712;52.530;9.760;2022-08-25T02:33:57;17.27;;;9.35;;
58926;SDS011;44712;52.530;9.760;2022-08-25T02:36:24;14.85;;;10.35;;
58926;SDS011;44712;52.530;9.760;2022-08-25T02:38:51;15.75;;;9.88;;
58926;SDS011;44712;52.530;9.760;2022-08-25T02:41:19;15.85;;;10.57;;
58926;SDS011;44712;52.530;9.760;2022-08-25T02:43:57;14.75;;;10.63;;
58926;SDS011;44712;52.530;9.760;2022-08-25T02:49:20;17.67;;;10.60;;
58926;SDS011;44712;52.530;9.760;2022-08-25T02:51:47;16.85;;;10.60;;
58926;SDS011;44712;52.530;9.760;2022-08-25T02:54:13;16.42;;;11.38;;
58926;SDS011;44712;52.530;9.760;2022-08-25T02:56:41;17.50;;;11.50;;
58926;SDS011;44712;52.530;9.760;2022-08-25T02:59:09;17.42;;;11.02;;
58926;SDS011;44712;52.530;9.760;2022-08-25T03:01:36;17.67;;;11.25;;
58926;SDS011;44712;52.530;9.760;2022-08-25T03:04:03;16.75;;;12.43;;
58926;SDS011;44712;52.530;9.760;2022-08-25T03:06:29;18.88;;;11.70;;
58926;SDS011;44712;52.530;9.760;2022-08-25T03:08:56;19.48;;;11.43;;
58926;SDS011;44712;52.530;9.760;2022-08-25T03:11:23;19.98;;;11.70;;
58926;SDS011;44712;52.530;9.760;2022-08-25T03:13:51;18.30;;;11.73;;
58926;SDS011;44712;52.530;9.760;2022-08-25T03:16:19;19.58;;;12.07;;
58926;SDS011;44712;52.530;9.760;2022-08-25T03:18:46;15.32;;;11.88;;
58926;SDS011;44712;52.530;9.760;2022-08-25T03:21:14;19.27;;;12.27;;
58926;SDS011;44712;52.530;9.760;2022-08-25T03:23:43;19.27;;;12.32;;
58926;SDS011;44712;52.530;9.760;2022-08-25T03:26:11;20.55;;;12.90;;
58926;SDS011;44712;52.530;9.760;2022-08-25T03:28:56;22.17;;;13.30;;
58926;SDS011;44712;52.530;9.760;2022-08-25T03:31:23;23.73;;;13.68;;
58926;SDS011;44712;52.530;9.760;2022-08-25T03:33:52;22.55;;;14.10;;
58926;SDS011;44712;52.530;9.760;2022-08-25T03:36:19;23.08;;;13.07;;
58926;SDS011;44712;52.530;9.760;2022-08-25T03:38:46;19.05;;;12.82;;
58926;SDS011;44712;52.530;9.760;2022-08-25T03:41:17;20.15;;;12.63;;
58926;SDS011;44712;52.530;9.760;2022-08-25T03:43:52;24.83;;;13.27;;
58926;SDS011;44712;52.530;9.760;2022-08-25T03:46:20;19.83;;;13.35;;
58926;SDS011;44712;52.530;9.760;2022-08-25T03:48:49;21.20;;;13.55;;
58926;SDS011;44712;52.530;9.760;2022-08-25T03:51:27;24.55;;;14.18;;
58926;SDS011;44712;52.530;9.760;2022-08-25T03:53:57;22.15;;;13.48;;
58926;SDS011;44712;52.530;9.760;2022-08-25T03:56:25;26.80;;;14.32;;
58926;SDS011;44712;52.530;9.760;2022-08-25T03:58:55;20.52;;;13.85;;
58926;SDS011;44712;52.530;9.760;2022-08-25T04:01:22;18.73;;;13.95;;
58926;SDS011;44712;52.530;9.760;2022-08-25T04:03:54;22.73;;;14.38;;
58926;SDS011;44712;52.530;9.760;2022-08-25T04:06:21;20.77;;;13.35;;
58926;SDS011;44712;52.530;9.760;2022-08-25T04:08:51;21.35;;;13.52;;
58926;SDS011;44712;52.530;9.760;2022-08-25T04:11:20;22.00;;;14.20;;
58926;SDS011;44712;52.530;9.760;2022-08-25T04:13:51;22.50;;;15.00;;
58926;SDS011;44712;52.530;9.760;2022-08-25T04:16:22;24.30;;;14.40;;
58926;SDS011;44712;52.530;9.760;2022-08-25T04:18:51;22.17;;;14.13;;
58926;SDS011;44712;52.530;9.760;2022-08-25T04:21:20;19.65;;;13.70;;
58926;SDS011;44712;52.530;9.760;2022-08-25T04:23:49;23.67;;;15.43;;
58926;SDS011;44712;52.530;9.760;2022-08-25T04:26:18;25.90;;;13.95;;
58926;SDS011;44712;52.530;9.760;2022-08-25T04:28:46;20.83;;;14.20;;
58926;SDS011;44712;52.530;9.760;2022-08-25T04:31:15;21.30;;;14.50;;
58926;SDS011;44712;52.530;9.760;2022-08-25T04:33:42;24.15;;;14.07;;
58926;SDS011;44712;52.530;9.760;2022-08-25T04:36:09;23.50;;;16.15;;
58926;SDS011;44712;52.530;9.760;2022-08-25T04:38:40;26.13;;;14.95;;
58926;SDS011;44712;52.530;9.760;2022-08-25T04:41:08;27.73;;;15.55;;
58926;SDS011;44712;52.530;9.760;2022-08-25T04:43:37;25.45;;;15.90;;
58926;SDS011;44712;52.530;9.760;2022-08-25T04:46:07;26.95;;;14.93;;
58926;SDS011;44712;52.530;9.760;2022-08-25T04:48:38;27.60;;;15.68;;
58926;SDS011;44712;52.530;9.760;2022-08-25T04:51:09;25.95;;;15.50;;
58926;SDS011;44712;52.530;9.760;2022-08-25T04:53:39;21.88;;;14.43;;
58926;SDS011;44712;52.530;9.760;2022-08-25T04:56:07;29.52;;;15.27;;
58926;SDS011;44712;52.530;9.760;2022-08-25T04:58:36;23.73;;;15.40;;
58926;SDS011;44712;52.530;9.760;2022-08-25T05:01:11;25.60;;;16.42;;
58926;SDS011;44712;52.530;9.760;2022-08-25T05:03:41;38.33;;;19.20;;
58926;SDS011;44712;52.530;9.760;2022-08-25T05:06:08;33.50;;;17.67;;
58926;SDS011;44712;52.530;9.760;2022-08-25T05:08:41;25.60;;;17.00;;
58926;SDS011;44712;52.530;9.760;2022-08-25T05:11:12;23.65;;;14.32;;
58926;SDS011;44712;52.530;9.760;2022-08-25T05:13:46;22.67;;;15.18;;
58926;SDS011;44712;52.530;9.760;2022-08-25T05:16:17;23.33;;;16.08;;
58926;SDS011;44712;52.530;9.760;2022-08-25T05:18:45;29.42;;;17.23;;
58926;SDS011;44712;52.530;9.760;2022-08-25T05:21:13;25.25;;;17.05;;
58926;SDS011;44712;52.530;9.760;2022-08-25T05:23:42;28.17;;;17.85;;
58926;SDS011;44712;52.530;9.760;2022-08-25T05:26:13;26.27;;;17.30;;
58926;SDS011;44712;52.530;9.760;2022-08-25T05:28:46;24.70;;;15.68;;
58926;SDS011;44712;52.530;9.760;2022-08-25T05:31:15;25.83;;;16.25;;
58926;SDS011;44712;52.530;9.760;2022-08-25T05:33:42;30.08;;;18.08;;
58926;SDS011;44712;52.530;9.760;2022-08-25T05:36:10;26.00;;;17.80;;
58926;SDS011;44712;52.530;9.760;2022-08-25T05:38:38;28.27;;;17.45;;
58926;SDS011;44712;52.530;9.760;2022-08-25T05:41:07;29.60;;;17.75;;
58926;SDS011;44712;52.530;9.760;2022-08-25T05:43:37;28.30;;;18.23;;
58926;SDS011;44712;52.530;9.760;2022-08-25T05:46:06;30.02;;;19.90;;
58926;SDS011;44712;52.530;9.760;2022-08-25T05:48:34;32.42;;;18.55;;
58926;SDS011;44712;52.530;9.760;2022-08-25T05:51:02;30.33;;;18.88;;
58926;SDS011;44712;52.530;9.760;2022-08-25T05:53:31;33.42;;;20.17;;
58926;SDS011;44712;52.530;9.760;2022-08-25T05:56:00;31.05;;;20.33;;
58926;SDS011;44712;52.530;9.760;2022-08-25T05:58:27;27.90;;;18.05;;
58926;SDS011;44712;52.530;9.760;2022-08-25T06:00:54;31.15;;;19.20;;
58926;SDS011;44712;52.530;9.760;2022-08-25T06:03:22;26.10;;;18.02;;
58926;SDS011;44712;52.530;9.760;2022-08-25T06:05:48;29.65;;;18.63;;
58926;SDS011;44712;52.530;9.760;2022-08-25T06:08:15;33.17;;;19.38;;
58926;SDS011;44712;52.530;9.760;2022-08-25T06:10:42;31.30;;;19.00;;
58926;SDS011;44712;52.530;9.760;2022-08-25T06:13:16;27.92;;;18.60;;
58926;SDS011;44712;52.530;9.760;2022-08-25T06:15:58;32.33;;;17.52;;
58926;SDS011;44712;52.530;9.760;2022-08-25T06:18:26;29.35;;;18.95;;
58926;SDS011;44712;52.530;9.760;2022-08-25T06:20:53;29.30;;;19.23;;
58926;SDS011;44712;52.530;9.760;2022-08-25T06:23:20;26.23;;;18.63;;
58926;SDS011;44712;52.530;9.760;2022-08-25T06:25:50;25.55;;;17.70;;
58926;SDS011;44712;52.530;9.760;2022-08-25T06:28:19;27.52;;;19.58;;
58926;SDS011;44712;52.530;9.760;2022-08-25T06:30:46;30.90;;;19.50;;
58926;SDS011;44712;52.530;9.760;2022-08-25T06:33:13;28.33;;;18.77;;
58926;SDS011;44712;52.530;9.760;2022-08-25T06:35:42;28.60;;;17.77;;
58926;SDS011;44712;52.530;9.760;2022-08-25T06:38:09;26.63;;;16.80;;
58926;SDS011;44712;52.530;9.760;2022-08-25T06:40:37;24.75;;;16.63;;
58926;SDS011;44712;52.530;9.760;2022-08-25T06:43:03;29.33;;;18.98;;
58926;SDS011;44712;52.530;9.760;2022-08-25T06:45:34;26.45;;;16.85;;
58926;SDS011;44712;52.530;9.760;2022-08-25T06:50:54;23.42;;;16.77;;
58926;SDS011;44712;52.530;9.760;2022-08-25T06:53:21;23.52;;;16.45;;
58926;SDS011;44712;52.530;9.760;2022-08-25T06:55:54;23.77;;;16.10;;
58926;SDS011;44712;52.530;9.760;2022-08-25T06:58:32;21.48;;;15.20;;
58926;SDS011;44712;52.530;9.760;2022-08-25T07:01:19;22.52;;;15.30;;
58926;SDS011;44712;52.530;9.760;2022-08-25T07:03:55;20.17;;;14.43;;
58926;SDS011;44712;52.530;9.760;2022-08-25T07:06:23;23.55;;;15.40;;
58926;SDS011;44712;52.530;9.760;2022-08-25T07:08:50;21.23;;;14.98;;
58926;SDS011;44712;52.530;9.760;2022-08-25T07:11:17;24.30;;;15.20;;
58926;SDS011;44712;52.530;9.760;2022-08-25T07:13:47;23.80;;;15.13;;
58926;SDS011;44712;52.530;9.760;2022-08-25T07:16:15;23.83;;;14.82;;
58926;SDS011;44712;52.530;9.760;2022-08-25T07:18:43;25.17;;;15.18;;
58926;SDS011;44712;52.530;9.760;2022-08-25T07:21:10;18.55;;;14.35;;
58926;SDS011;44712;52.530;9.760;2022-08-25T07:23:39;20.08;;;13.95;;
58926;SDS011;44712;52.530;9.760;2022-08-25T07:26:14;20.33;;;14.55;;
58926;SDS011;44712;52.530;9.760;2022-08-25T07:29:04;22.58;;;13.40;;
58926;SDS011;44712;52.530;9.760;2022-08-25T07:31:34;14.77;;;12.50;;
58926;SDS011;44712;52.530;9.760;2022-08-25T07:34:02;19.35;;;12.73;;
58926;SDS011;44712;52.530;9.760;2022-08-25T07:36:48;16.83;;;12.45;;
58926;SDS011;44712;52.530;9.760;2022-08-25T07:39:14;19.67;;;13.40;;
58926;SDS011;44712;52.530;9.760;2022-08-25T07:41:47;18.05;;;13.52;;
58926;SDS011;44712;52.530;9.760;2022-08-25T07:44:18;17.27;;;12.45;;
58926;SDS011;44712;52.530;9.760;2022-08-25T07:46:48;19.30;;;12.55;;
58926;SDS011;44712;52.530;9.760;2022-08-25T07:49:20;17.77;;;12.73;;
58926;SDS011;44712;52.530;9.760;2022-08-25T07:51:49;20.47;;;12.97;;
58926;SDS011;44712;52.530;9.760;2022-08-25T07:54:34;17.17;;;12.85;;
58926;SDS011;44712;52.530;9.760;2022-08-25T07:57:04;15.80;;;12.63;;
58926;SDS011;44712;52.530;9.760;2022-08-25T07:59:31;15.70;;;12.00;;
58926;SDS011;44712;52.530;9.760;2022-08-25T08:02:09;13.82;;;11.90;;
58926;SDS011;44712;52.530;9.760;2022-08-25T08:04:45;14.38;;;11.57;;
58926;SDS011;44712;52.530;9.760;2022-08-25T08:07:16;17.05;;;11.30;;
58926;SDS011;44712;52.530;9.760;2022-08-25T08:09:44;15.95;;;11.27;;
58926;SDS011;44712;52.530;9.760;2022-08-25T08:12:13;15.00;;;11.85;;
58926;SDS011;44712;52.530;9.760;2022-08-25T08:14:40;15.02;;;11.80;;
58926;SDS011;44712;52.530;9.760;2022-08-25T08:17:10;14.18;;;11.40;;
58926;SDS011;44712;52.530;9.760;2022-08-25T08:19:38;14.35;;;10.85;;
58926;SDS011;44712;52.530;9.760;2022-08-25T08:22:12;12.13;;;10.68;;
58926;SDS011;44712;52.530;9.760;2022-08-25T08:24:42;12.40;;;11.10;;
58926;SDS011;44712;52.530;9.760;2022-08-25T08:27:21;12.63;;;10.82;;
58926;SDS011;44712;52.530;9.760;2022-08-25T08:29:52;12.90;;;10.70;;
58926;SDS011;44712;52.530;9.760;2022-08-25T08:32:19;13.80;;;10.52;;
58926;SDS011;44712;52.530;9.760;2022-08-25T08:34:50;13.30;;;11.23;;
58926;SDS011;44712;52.530;9.760;2022-08-25T08:37:18;15.27;;;11.32;;
58926;SDS011;44712;52.530;9.760;2022-08-25T08:39:48;15.18;;;11.68;;
58926;SDS011;44712;52.530;9.760;2022-08-25T08:45:28;13.95;;;10.68;;
58926;SDS011;44712;52.530;9.760;2022-08-25T08:48:26;14.68;;;10.80;;
58926;SDS011;44712;52.530;9.760;2022-08-25T08:51:03;14.13;;;10.77;;
58926;SDS011;44712;52.530;9.760;2022-08-25T08:56:13;16.58;;;10.85;;
58926;SDS011;44712;52.530;9.760;2022-08-25T08:58:45;12.90;;;10.60;;
58926;SDS011;44712;52.530;9.760;2022-08-25T09:01:17;14.38;;;10.48;;
58926;SDS011;44712;52.530;9.760;2022-08-25T09:03:52;12.55;;;10.63;;
58926;SDS011;44712;52.530;9.760;2022-08-25T09:06:39;15.10;;;11.15;;
58926;SDS011;44712;52.530;9.760;2022-08-25T09:09:10;16.65;;;11.20;;
58926;SDS011;44712;52.530;9.760;2022-08-25T09:14:43;14.52;;;10.63;;
58926;SDS011;44712;52.530;9.760;2022-08-25T09:17:41;12.90;;;10.23;;
58926;SDS011;44712;52.530;9.760;2022-08-25T09:25:47;14.75;;;10.85;;
58926;SDS011;44712;52.530;9.760;2022-08-25T09:33:57;12.38;;;10.02;;
58926;SDS011;44712;52.530;9.760;2022-08-25T09:36:27;11.93;;;9.20;;
58926;SDS011;44712;52.530;9.760;2022-08-25T09:39:02;10.80;;;9.45;;
58926;SDS011;44712;52.530;9.760;2022-08-25T09:41:41;11.07;;;9.05;;
58926;SDS011;44712;52.530;9.760;2022-08-25T09:44:18;10.00;;;8.77;;
58926;SDS011;44712;52.530;9.760;2022-08-25T09:46:55;12.10;;;9.32;;
58926;SDS011;44712;52.530;9.760;2022-08-25T09:49:35;12.23;;;8.88;;
58926;SDS011;44712;52.530;9.760;2022-08-25T09:57:34;10.95;;;9.43;;
58926;SDS011;44712;52.530;9.760;2022-08-25T10:03:11;10.63;;;9.43;;
58926;SDS011;44712;52.530;9.760;2022-08-25T10:08:50;9.23;;;8.02;;
58926;SDS011;44712;52.530;9.760;2022-08-25T10:11:13;10.57;;;8.30;;
58926;SDS011;44712;52.530;9.760;2022-08-25T10:14:00;11.45;;;8.05;;
58926;SDS011;44712;52.530;9.760;2022-08-25T10:16:33;12.75;;;9.50;;
58926;SDS011;44712;52.530;9.760;2022-08-25T10:22:10;13.15;;;8.82;;
58926;SDS011;44712;52.530;9.760;2022-08-25T10:24:45;10.23;;;8.40;;
58926;SDS011;44712;52.530;9.760;2022-08-25T10:27:35;11.23;;;8.27;;
58926;SDS011;44712;52.530;9.760;2022-08-25T10:33:07;12.73;;;8.20;;
58926;SDS011;44712;52.530;9.760;2022-08-25T10:35:56;9.13;;;8.20;;
58926;SDS011;44712;52.530;9.760;2022-08-25T10:55:38;12.07;;;8.48;;
58926;SDS011;44712;52.530;9.760;2022-08-25T10:58:14;11.55;;;8.07;;
58926;SDS011;44712;52.530;9.760;2022-08-25T11:00:54;12.32;;;8.80;;
58926;SDS011;44712;52.530;9.760;2022-08-25T11:03:40;10.65;;;8.73;;
58926;SDS011;44712;52.530;9.760;2022-08-25T11:08:59;9.23;;;7.90;;
58926;SDS011;44712;52.530;9.760;2022-08-25T11:11:44;12.52;;;8.73;;
58926;SDS011;44712;52.530;9.760;2022-08-25T11:14:19;14.05;;;9.20;;
58926;SDS011;44712;52.530;9.760;2022-08-25T11:17:16;10.35;;;8.75;;
58926;SDS011;44712;52.530;9.760;2022-08-25T11:19:48;11.30;;;8.57;;
58926;SDS011;44712;52.530;9.760;2022-08-25T11:27:51;14.85;;;8.60;;
58926;SDS011;44712;52.530;9.760;2022-08-25T11:30:25;13.43;;;8.90;;
58926;SDS011;44712;52.530;9.760;2022-08-25T11:32:52;11.90;;;8.30;;
58926;SDS011;44712;52.530;9.760;2022-08-25T11:35:28;12.32;;;8.20;;
58926;SDS011;44712;52.530;9.760;2022-08-25T11:40:49;10.75;;;8.30;;
58926;SDS011;44712;52.530;9.760;2022-08-25T11:46:42;11.20;;;8.80;;
58926;SDS011;44712;52.530;9.760;2022-08-25T11:49:30;10.27;;;9.15;;
58926;SDS011;44712;52.530;9.760;2022-08-25T11:55:04;10.75;;;8.77;;
58926;SDS011;44712;52.530;9.760;2022-08-25T11:57:36;9.77;;;8.52;;
58926;SDS011;44712;52.530;9.760;2022-08-25T12:07:56;14.25;;;8.80;;
58926;SDS011;44712;52.530;9.760;2022-08-25T12:10:54;11.73;;;7.63;;
58926;SDS011;44712;52.530;9.760;2022-08-25T12:13:43;12.40;;;8.95;;
58926;SDS011;44712;52.530;9.760;2022-08-25T12:16:36;10.57;;;7.95;;
58926;SDS011;44712;52.530;9.760;2022-08-25T12:21:52;11.20;;;8.13;;
58926;SDS011;44712;52.530;9.760;2022-08-25T12:24:24;9.50;;;7.28;;
58926;SDS011;44712;52.530;9.760;2022-08-25T12:36:10;10.85;;;7.18;;
58926;SDS011;44712;52.530;9.760;2022-08-25T12:38:29;12.30;;;7.43;;
58926;SDS011;44712;52.530;9.760;2022-08-25T12:41:12;10.50;;;7.40;;
58926;SDS011;44712;52.530;9.760;2022-08-25T12:43:50;12.27;;;7.20;;
58926;SDS011;44712;52.530;9.760;2022-08-25T12:51:53;12.02;;;7.55;;
58926;SDS011;44712;52.530;9.760;2022-08-25T12:54:45;10.40;;;7.75;;
58926;SDS011;44712;52.530;9.760;2022-08-25T12:57:42;8.32;;;7.43;;
58926;SDS011;44712;52.530;9.760;2022-08-25T13:14:44;11.68;;;7.13;;
58926;SDS011;44712;52.530;9.760;2022-08-25T13:17:25;11.43;;;8.05;;
58926;SDS011;44712;52.530;9.760;2022-08-25T13:20:10;11.00;;;7.20;;
58926;SDS011;44712;52.530;9.760;2022-08-25T13:22:45;12.48;;;7.38;;
58926;SDS011;44712;52.530;9.760;2022-08-25T13:25:15;8.57;;;7.72;;
58926;SDS011;44712;52.530;9.760;2022-08-25T13:27:55;10.20;;;7.22;;
58926;SDS011;44712;52.530;9.760;2022-08-25T13:30:26;9.77;;;8.10;;
58926;SDS011;44712;52.530;9.760;2022-08-25T13:32:55;9.23;;;7.35;;
58926;SDS011;44712;52.530;9.760;2022-08-25T13:35:25;10.27;;;7.50;;
58926;SDS011;44712;52.530;9.760;2022-08-25T13:38:17;8.80;;;7.10;;
58926;SDS011;44712;52.530;9.760;2022-08-25T13:40:44;12.18;;;7.95;;
58926;SDS011;44712;52.530;9.760;2022-08-25T13:43:12;10.48;;;7.95;;
58926;SDS011;44712;52.530;9.760;2022-08-25T13:45:44;8.73;;;7.65;;
58926;SDS011;44712;52.530;9.760;2022-08-25T13:48:29;11.27;;;7.82;;
58926;SDS011;44712;52.530;9.760;2022-08-25T13:53:48;10.70;;;7.63;;
58926;SDS011;44712;52.530;9.760;2022-08-25T13:56:22;11.05;;;7.88;;
58926;SDS011;44712;52.530;9.760;2022-08-25T13:58:51;9.95;;;7.20;;
58926;SDS011;44712;52.530;9.760;2022-08-25T14:01:23;10.32;;;7.90;;
58926;SDS011;44712;52.530;9.760;2022-08-25T14:09:54;12.52;;;7.55;;
58926;SDS011;44712;52.530;9.760;2022-08-25T14:12:46;11.20;;;7.80;;
58926;SDS011;44712;52.530;9.760;2022-08-25T14:20:43;9.65;;;7.55;;
58926;SDS011;44712;52.530;9.760;2022-08-25T14:23:14;11.07;;;7.65;;
58926;SDS011;44712;52.530;9.760;2022-08-25T14:25:44;12.18;;;7.38;;
58926;SDS011;44712;52.530;9.760;2022-08-25T14:28:18;10.88;;;7.45;;
58926;SDS011;44712;52.530;9.760;2022-08-25T14:30:49;11.98;;;7.55;;
58926;SDS011;44712;52.530;9.760;2022-08-25T14:33:20;9.43;;;7.78;;
58926;SDS011;44712;52.530;9.760;2022-08-25T14:35:51;10.43;;;7.50;;
58926;SDS011;44712;52.530;9.760;2022-08-25T14:38:22;10.63;;;7.35;;
58926;SDS011;44712;52.530;9.760;2022-08-25T14:40:49;12.98;;;7.60;;
58926;SDS011;44712;52.530;9.760;2022-08-25T14:43:18;11.52;;;7.50;;
58926;SDS011;44712;52.530;9.760;2022-08-25T14:45:49;9.23;;;7.55;;
58926;SDS011;44712;52.530;9.760;2022-08-25T14:51:03;10.25;;;8.02;;
58926;SDS011;44712;52.530;9.760;2022-08-25T14:53:30;12.82;;;7.32;;
58926;SDS011;44712;52.530;9.760;2022-08-25T14:56:00;9.57;;;7.10;;
58926;SDS011;44712;52.530;9.760;2022-08-25T14:58:35;8.90;;;6.47;;
58926;SDS011;44712;52.530;9.760;2022-08-25T15:01:17;10.55;;;7.38;;
58926;SDS011;44712;52.530;9.760;2022-08-25T15:04:09;9.93;;;7.63;;
58926;SDS011;44712;52.530;9.760;2022-08-25T15:06:41;9.77;;;7.07;;
58926;SDS011;44712;52.530;9.760;2022-08-25T15:09:11;11.65;;;7.88;;
58926;SDS011;44712;52.530;9.760;2022-08-25T15:11:43;10.65;;;7.05;;
58926;SDS011;44712;52.530;9.760;2022-08-25T15:14:12;9.65;;;7.18;;
58926;SDS011;44712;52.530;9.760;2022-08-25T15:16:53;10.43;;;7.88;;
58926;SDS011;44712;52.530;9.760;2022-08-25T15:19:23;9.73;;;7.10;;
58926;SDS011;44712;52.530;9.760;2022-08-25T15:21:52;9.25;;;7.80;;
58926;SDS011;44712;52.530;9.760;2022-08-25T15:24:23;12.18;;;7.03;;
58926;SDS011;44712;52.530;9.760;2022-08-25T15:26:52;9.07;;;7.15;;
58926;SDS011;44712;52.530;9.760;2022-08-25T15:29:24;10.98;;;6.65;;
58926;SDS011;44712;52.530;9.760;2022-08-25T15:31:55;9.68;;;7.15;;
58926;SDS011;44712;52.530;9.760;2022-08-25T15:34:23;9.45;;;7.10;;
58926;SDS011;44712;52.530;9.760;2022-08-25T15:36:50;11.40;;;7.05;;
58926;SDS011;44712;52.530;9.760;2022-08-25T15:39:17;12.45;;;7.40;;
58926;SDS011;44712;52.530;9.760;2022-08-25T15:41:45;12.10;;;6.78;;
58926;SDS011;44712;52.530;9.760;2022-08-25T15:44:15;9.52;;;7.07;;
58926;SDS011;44712;52.530;9.760;2022-08-25T15:46:42;9.30;;;6.50;;
58926;SDS011;44712;52.530;9.760;2022-08-25T15:49:15;9.35;;;7.00;;
58926;SDS011;44712;52.530;9.760;2022-08-25T15:51:50;8.52;;;6.68;;
58926;SDS011;44712;52.530;9.760;2022-08-25T15:54:20;8.10;;;6.90;;
58926;SDS011;44712;52.530;9.760;2022-08-25T15:56:52;11.13;;;7.00;;
58926;SDS011;44712;52.530;9.760;2022-08-25T15:59:20;9.23;;;7.53;;
58926;SDS011;44712;52.530;9.760;2022-08-25T16:01:47;11.73;;;7.18;;
58926;SDS011;44712;52.530;9.760;2022-08-25T16:04:19;9.35;;;6.20;;
58926;SDS011;44712;52.530;9.760;2022-08-25T16:06:48;9.32;;;6.75;;
58926;SDS011;44712;52.530;9.760;2022-08-25T16:09:16;11.07;;;7.07;;
58926;SDS011;44712;52.530;9.760;2022-08-25T16:14:24;9.57;;;7.30;;
58926;SDS011;44712;52.530;9.760;2022-08-25T16:16:52;7.93;;;7.13;;
58926;SDS011;44712;52.530;9.760;2022-08-25T16:19:25;9.90;;;6.90;;
58926;SDS011;44712;52.530;9.760;2022-08-25T16:21:57;11.40;;;7.18;;
58926;SDS011;44712;52.530;9.760;2022-08-25T16:24:26;9.05;;;7.10;;
58926;SDS011;44712;52.530;9.760;2022-08-25T16:26:52;7.88;;;6.95;;
58926;SDS011;44712;52.530;9.760;2022-08-25T16:29:22;9.38;;;7.03;;
58926;SDS011;44712;52.530;9.760;2022-08-25T16:31:49;11.45;;;7.30;;
58926;SDS011;44712;52.530;9.760;2022-08-25T16:34:20;7.55;;;6.70;;
58926;SDS011;44712;52.530;9.760;2022-08-25T16:36:50;11.95;;;7.32;;
58926;SDS011;44712;52.530;9.760;2022-08-25T16:39:18;7.78;;;6.32;;
58926;SDS011;44712;52.530;9.760;2022-08-25T16:41:46;8.85;;;7.03;;
58926;SDS011;44712;52.530;9.760;2022-08-25T16:44:13;9.73;;;7.03;;
58926;SDS011;44712;52.530;9.760;2022-08-25T16:46:41;9.20;;;6.53;;
58926;SDS011;44712;52.530;9.760;2022-08-25T16:49:10;10.27;;;6.82;;
58926;SDS011;44712;52.530;9.760;2022-08-25T16:51:41;11.02;;;6.90;;
58926;SDS011;44712;52.530;9.760;2022-08-25T16:54:09;12.23;;;7.40;;
58926;SDS011;44712;52.530;9.760;2022-08-25T16:56:54;11.40;;;7.28;;
58926;SDS011;44712;52.530;9.760;2022-08-25T16:59:23;10.23;;;7.15;;
58926;SDS011;44712;52.530;9.760;2022-08-25T17:01:53;12.63;;;7.45;;
58926;SDS011;44712;52.530;9.760;2022-08-25T17:04:23;9.30;;;7.70;;
58926;SDS011;44712;52.530;9.760;2022-08-25T17:06:58;11.40;;;7.93;;
58926;SDS011;44712;52.530;9.760;2022-08-25T17:09:26;10.95;;;6.63;;
58926;SDS011;44712;52.530;9.760;2022-08-25T17:11:54;11.32;;;7.18;;
58926;SDS011;44712;52.530;9.760;2022-08-25T17:14:22;7.55;;;6.75;;
58926;SDS011;44712;52.530;9.760;2022-08-25T17:16:49;10.75;;;7.85;;
58926;SDS011;44712;52.530;9.760;2022-08-25T17:19:20;10.60;;;7.65;;
58926;SDS011;44712;52.530;9.760;2022-08-25T17:21:49;9.02;;;6.88;;